createdAt,value
2023-04-21T00:01:08.570Z,3.00
2023-04-21T00:03:38.745Z,5.50
2023-04-21T00:06:09.470Z,3.97
2023-04-21T00:08:42.265Z,5.75
2023-04-21T00:11:08.762Z,9.38
2023-04-21T00:13:36.147Z,9.65
2023-04-21T00:16:03.076Z,8.43
2023-04-21T00:18:29.599Z,10.98
2023-04-21T00:20:56.331Z,11.15
2023-04-21T00:23:22.740Z,14.13
2023-04-21T00:25:49.115Z,10.65
2023-04-21T00:28:15.709Z,11.60
2023-04-21T00:30:42.140Z,7.40
2023-04-21T00:33:08.451Z,7.55
2023-04-21T00:35:34.768Z,5.28
2023-04-21T00:38:01.085Z,4.22
2023-04-21T00:40:27.526Z,5.10
2023-04-21T00:42:53.822Z,6.82
2023-04-21T00:45:20.140Z,5.80
2023-04-21T00:47:46.505Z,7.95
2023-04-21T00:50:13.384Z,4.70
2023-04-21T00:52:40.509Z,5.60
2023-04-21T00:55:07.146Z,11.73
2023-04-21T00:57:34.400Z,8.00
2023-04-21T01:00:01.057Z,6.38
2023-04-21T01:02:28.480Z,6.35
2023-04-21T01:04:54.949Z,4.50
2023-04-21T01:07:21.621Z,2.80
2023-04-21T01:09:47.960Z,2.75
2023-04-21T01:12:14.367Z,2.22
2023-04-21T01:14:40.991Z,3.13
2023-04-21T01:17:08.076Z,13.82
2023-04-21T01:19:41.939Z,9.15
2023-04-21T01:22:11.180Z,10.35
2023-04-21T01:24:38.346Z,10.15
2023-04-21T01:27:08.833Z,7.60
2023-04-21T01:29:35.359Z,11.38
2023-04-21T01:32:12.047Z,13.40
2023-04-21T01:34:39.706Z,11.15
2023-04-21T01:37:13.518Z,14.00
2023-04-21T01:39:46.857Z,10.35
2023-04-21T01:42:13.416Z,13.30
2023-04-21T01:44:40.152Z,15.10
2023-04-21T01:47:06.986Z,13.52
2023-04-21T01:49:33.377Z,13.82
2023-04-21T01:51:59.706Z,13.40
2023-04-21T01:54:26.236Z,10.90
2023-04-21T01:56:52.679Z,8.85
2023-04-21T01:59:19.262Z,11.15
2023-04-21T02:01:46.030Z,9.73
2023-04-21T02:04:12.414Z,14.65
2023-04-21T02:06:38.799Z,12.05
2023-04-21T02:09:05.343Z,11.05
2023-04-21T02:11:31.635Z,15.43
2023-04-21T02:13:57.981Z,9.52
2023-04-21T02:16:27.312Z,9.98
2023-04-21T02:18:54.464Z,9.40
2023-04-21T02:21:24.529Z,6.20
2023-04-21T02:23:51.540Z,9.82
2023-04-21T02:26:18.288Z,9.57
2023-04-21T02:28:44.863Z,6.50
2023-04-21T02:31:11.286Z,7.20
2023-04-21T02:33:37.719Z,8.95
2023-04-21T02:36:04.549Z,9.57
2023-04-21T02:38:30.981Z,6.25
2023-04-21T02:40:57.693Z,5.13
2023-04-21T02:43:24.514Z,3.90
2023-04-21T02:45:51.433Z,9.35
2023-04-21T02:48:22.853Z,6.05
2023-04-21T02:50:50.093Z,3.85
2023-04-21T02:53:16.866Z,2.45
2023-04-21T02:55:43.463Z,2.30
2023-04-21T02:58:10.280Z,2.40
2023-04-21T03:00:36.768Z,3.40
2023-04-21T03:03:03.428Z,3.75
2023-04-21T03:05:30.109Z,3.25
2023-04-21T03:07:56.458Z,4.47
2023-04-21T03:10:22.849Z,4.20
2023-04-21T03:12:49.189Z,3.92
2023-04-21T03:15:15.579Z,3.40
2023-04-21T03:17:42.306Z,2.15
2023-04-21T03:20:09.076Z,2.13
2023-04-21T03:22:35.855Z,2.70
2023-04-21T03:25:02.269Z,2.92
2023-04-21T03:27:28.816Z,2.60
2023-04-21T03:29:55.166Z,2.58
2023-04-21T03:32:21.636Z,3.90
2023-04-21T03:34:48.162Z,3.70
2023-04-21T03:37:14.491Z,5.05
2023-04-21T03:39:40.912Z,5.18
2023-04-21T03:42:07.205Z,5.55
2023-04-21T03:44:33.562Z,5.07
2023-04-21T03:46:59.983Z,3.85
2023-04-21T03:49:26.355Z,9.38
2023-04-21T03:51:52.673Z,5.10
2023-04-21T03:54:19.044Z,5.07
2023-04-21T03:56:45.421Z,7.80
2023-04-21T03:59:11.704Z,8.32
2023-04-21T04:01:38.056Z,5.00
2023-04-21T04:04:04.601Z,6.15
2023-04-21T04:06:32.556Z,4.00
2023-04-21T04:08:58.955Z,6.38
2023-04-21T04:11:25.322Z,11.80
2023-04-21T04:13:51.657Z,8.40
2023-04-21T04:16:18.421Z,11.77
2023-04-21T04:18:45.822Z,9.10
2023-04-21T04:21:12.175Z,7.30
2023-04-21T04:23:38.573Z,5.63
2023-04-21T04:26:05.704Z,4.10
2023-04-21T04:28:32.165Z,6.60
2023-04-21T04:30:58.623Z,5.38
2023-04-21T04:33:25.078Z,8.60
2023-04-21T04:35:52.563Z,5.57
2023-04-21T04:38:18.952Z,4.18
2023-04-21T04:40:45.496Z,5.07
2023-04-21T04:43:11.796Z,3.85
2023-04-21T04:45:38.890Z,4.70
2023-04-21T04:48:05.469Z,6.50
2023-04-21T04:50:31.762Z,6.63
2023-04-21T04:52:58.114Z,4.15
2023-04-21T04:55:25.614Z,4.05
2023-04-21T04:57:52.163Z,3.65
2023-04-21T05:00:18.730Z,5.18
2023-04-21T05:02:45.493Z,3.40
2023-04-21T05:05:12.147Z,4.00
2023-04-21T05:07:38.638Z,4.50
2023-04-21T05:10:05.542Z,6.35
2023-04-21T05:12:34.681Z,5.75
2023-04-21T05:15:01.127Z,7.32
2023-04-21T05:17:28.686Z,7.90
2023-04-21T05:19:55.210Z,8.60
2023-04-21T05:22:21.572Z,8.68
2023-04-21T05:24:48.303Z,7.55
2023-04-21T05:27:14.779Z,8.57
2023-04-21T05:29:41.211Z,6.57
2023-04-21T05:32:07.719Z,7.95
2023-04-21T05:34:34.127Z,10.88
2023-04-21T05:37:00.533Z,7.43
2023-04-21T05:39:30.349Z,6.10
2023-04-21T05:41:56.903Z,6.00
2023-04-21T05:44:25.225Z,9.15
2023-04-21T05:46:51.535Z,7.38
2023-04-21T05:49:17.868Z,5.72
2023-04-21T05:51:44.278Z,3.85
2023-04-21T05:54:10.615Z,2.50
2023-04-21T05:56:36.918Z,2.05
2023-04-21T05:59:03.683Z,2.60
2023-04-21T06:01:30.143Z,3.20
2023-04-21T06:03:56.705Z,4.32
2023-04-21T06:06:23.267Z,2.40
2023-04-21T06:08:49.622Z,5.05
2023-04-21T06:11:16.270Z,4.10
2023-04-21T06:13:43.674Z,3.13
2023-04-21T06:16:10.091Z,5.70
2023-04-21T06:18:36.559Z,5.88
2023-04-21T06:21:02.950Z,10.93
2023-04-21T06:23:29.339Z,6.32
2023-04-21T06:25:59.437Z,7.43
2023-04-21T06:28:25.905Z,4.97
2023-04-21T06:30:52.213Z,7.38
2023-04-21T06:33:18.824Z,6.72
2023-04-21T06:35:45.140Z,4.50
2023-04-21T06:38:11.473Z,10.73
2023-04-21T06:40:37.852Z,10.05
2023-04-21T06:43:04.296Z,6.05
2023-04-21T06:45:30.624Z,12.00
2023-04-21T06:47:57.037Z,6.57
2023-04-21T06:50:23.349Z,10.52
2023-04-21T06:52:49.640Z,8.48
2023-04-21T06:55:15.988Z,17.73
2023-04-21T06:57:42.362Z,10.10
2023-04-21T07:00:09.680Z,9.40
2023-04-21T07:02:36.174Z,8.82
2023-04-21T07:05:02.692Z,11.05
2023-04-21T07:07:29.070Z,16.27
2023-04-21T07:09:55.408Z,9.43
2023-04-21T07:12:21.919Z,6.03
2023-04-21T07:14:48.309Z,10.30
2023-04-21T07:17:14.672Z,7.35
2023-04-21T07:19:41.031Z,6.93
2023-04-21T07:22:07.441Z,9.75
2023-04-21T07:24:35.481Z,5.85
2023-04-21T07:27:02.639Z,7.78
2023-04-21T07:29:29.414Z,6.72
2023-04-21T07:31:56.210Z,4.63
2023-04-21T07:34:22.789Z,3.30
2023-04-21T07:36:50.572Z,2.83
2023-04-21T07:39:17.206Z,2.75
2023-04-21T07:41:44.435Z,3.15
2023-04-21T07:44:10.798Z,4.35
2023-04-21T07:46:37.207Z,6.93
2023-04-21T07:49:04.191Z,5.10
2023-04-21T07:51:31.945Z,4.32
2023-04-21T07:53:58.489Z,4.63
2023-04-21T07:56:24.963Z,4.00
2023-04-21T07:58:51.304Z,2.90
2023-04-21T08:01:17.936Z,3.25
2023-04-21T08:03:44.594Z,2.13
2023-04-21T08:06:11.403Z,6.45
2023-04-21T08:08:37.933Z,3.35
2023-04-21T08:11:04.340Z,3.95
2023-04-21T08:13:30.800Z,5.40
2023-04-21T08:15:57.271Z,7.70
2023-04-21T08:18:23.701Z,5.00
2023-04-21T08:20:50.390Z,3.60
2023-04-21T08:23:16.791Z,3.25
2023-04-21T08:25:43.161Z,2.30
2023-04-21T08:28:09.553Z,2.40
2023-04-21T08:30:36.015Z,2.22
2023-04-21T08:33:02.510Z,3.03
2023-04-21T08:35:29.040Z,3.80
2023-04-21T08:37:55.528Z,3.47
2023-04-21T08:40:25.430Z,7.75
2023-04-21T08:42:51.844Z,8.45
2023-04-21T08:45:18.187Z,8.50
2023-04-21T08:47:44.918Z,6.82
2023-04-21T08:50:13.083Z,8.40
2023-04-21T08:52:39.407Z,5.05
2023-04-21T08:55:07.573Z,3.00
2023-04-21T08:57:34.257Z,2.75
2023-04-21T09:00:00.671Z,4.47
2023-04-21T09:02:27.205Z,2.60
2023-04-21T09:04:55.702Z,2.95
2023-04-21T09:07:32.855Z,4.88
2023-04-21T09:10:00.656Z,11.43
2023-04-21T09:12:27.774Z,6.50
2023-04-21T09:14:54.211Z,7.05
2023-04-21T09:17:22.328Z,6.95
2023-04-21T09:19:48.911Z,10.98
2023-04-21T09:22:16.194Z,16.65
2023-04-21T09:24:46.966Z,13.88
2023-04-21T09:27:14.969Z,12.98
2023-04-21T09:29:46.723Z,9.48
2023-04-21T09:32:16.398Z,7.65
2023-04-21T09:34:42.961Z,5.45
2023-04-21T09:37:10.837Z,4.50
2023-04-21T09:42:06.696Z,12.55
2023-04-21T09:44:43.085Z,8.35
2023-04-21T09:47:18.293Z,7.25
2023-04-21T09:49:45.039Z,8.88
2023-04-21T09:52:19.052Z,9.85
2023-04-21T09:54:50.738Z,7.43
2023-04-21T09:57:21.549Z,8.93
2023-04-21T09:59:51.087Z,5.85
2023-04-21T10:02:18.985Z,5.50
2023-04-21T10:04:46.150Z,6.03
2023-04-21T10:07:12.830Z,5.80
2023-04-21T10:09:46.619Z,5.07
2023-04-21T10:12:14.021Z,4.78
2023-04-21T10:14:40.402Z,9.85
2023-04-21T10:17:07.847Z,8.13
2023-04-21T10:19:41.816Z,6.40
2023-04-21T10:22:09.764Z,8.35
2023-04-21T10:24:40.518Z,16.50
2023-04-21T10:27:10.202Z,11.73
2023-04-21T10:29:52.574Z,11.43
2023-04-21T10:32:39.059Z,8.13
2023-04-21T10:35:08.482Z,6.10
2023-04-21T10:37:35.024Z,4.78
2023-04-21T10:40:01.457Z,7.45
2023-04-21T10:42:32.086Z,12.70
2023-04-21T10:44:58.655Z,12.93
2023-04-21T10:47:29.226Z,12.23
2023-04-21T10:49:56.683Z,12.15
2023-04-21T10:52:31.029Z,11.38
2023-04-21T10:55:07.995Z,13.00
2023-04-21T10:57:35.556Z,12.27
2023-04-21T11:00:05.373Z,12.80
2023-04-21T11:02:32.251Z,12.05
2023-04-21T11:05:01.013Z,14.27
2023-04-21T11:07:27.608Z,12.27
2023-04-21T11:10:01.169Z,12.57
2023-04-21T11:12:29.134Z,12.15
2023-04-21T11:14:56.416Z,12.07
2023-04-21T11:17:24.350Z,8.70
2023-04-21T11:19:54.264Z,9.35
2023-04-21T11:22:22.418Z,9.60
2023-04-21T11:24:50.944Z,8.43
2023-04-21T11:27:17.989Z,7.10
2023-04-21T11:29:45.101Z,5.22
2023-04-21T11:32:11.590Z,10.95
2023-04-21T11:34:38.364Z,8.32
2023-04-21T11:37:06.934Z,5.00
2023-04-21T11:39:33.297Z,4.32
2023-04-21T11:41:59.822Z,5.82
2023-04-21T11:44:35.654Z,5.97
2023-04-21T11:47:14.041Z,5.75
2023-04-21T11:50:02.217Z,6.40
2023-04-21T11:52:29.450Z,7.00
2023-04-21T11:54:57.880Z,11.63
2023-04-21T11:57:25.390Z,11.10
2023-04-21T11:59:52.205Z,10.00
2023-04-21T12:02:26.457Z,7.00
2023-04-21T12:05:03.589Z,6.68
2023-04-21T12:07:33.470Z,6.40
2023-04-21T12:10:00.543Z,7.40
2023-04-21T12:12:27.789Z,7.22
2023-04-21T12:14:54.243Z,6.35
2023-04-21T12:17:21.006Z,10.68
2023-04-21T12:19:47.440Z,7.82
2023-04-21T12:22:18.560Z,8.80
2023-04-21T12:24:45.509Z,10.40
2023-04-21T12:27:12.130Z,6.90
2023-04-21T12:29:39.151Z,9.25
2023-04-21T12:32:06.038Z,8.80
2023-04-21T12:34:33.009Z,8.65
2023-04-21T12:36:59.816Z,8.15
2023-04-21T12:39:26.185Z,7.30
2023-04-21T12:41:52.556Z,8.85
2023-04-21T12:44:19.268Z,8.90
2023-04-21T12:46:46.265Z,9.07
2023-04-21T12:49:12.780Z,8.95
2023-04-21T12:51:39.314Z,8.13
2023-04-21T12:54:06.269Z,9.05
2023-04-21T12:56:32.754Z,8.98
2023-04-21T12:58:59.626Z,7.68
2023-04-21T13:01:26.165Z,6.43
2023-04-21T13:03:52.831Z,4.90
2023-04-21T13:06:19.717Z,4.35
2023-04-21T13:08:47.476Z,5.82
2023-04-21T13:11:13.883Z,5.90
2023-04-21T13:13:40.215Z,6.28
2023-04-21T13:16:06.617Z,8.27
2023-04-21T13:18:34.931Z,4.80
2023-04-21T13:21:01.696Z,5.60
2023-04-21T13:23:28.414Z,4.55
2023-04-21T13:25:54.972Z,8.70
2023-04-21T13:28:21.680Z,6.75
2023-04-21T13:30:48.986Z,7.90
2023-04-21T13:33:15.545Z,7.82
2023-04-21T13:35:42.577Z,7.43
2023-04-21T13:38:09.094Z,7.50
2023-04-21T13:40:36.422Z,6.38
2023-04-21T13:43:03.009Z,7.00
2023-04-21T13:45:29.381Z,6.22
2023-04-21T13:47:55.871Z,6.32
2023-04-21T13:50:23.462Z,7.65
2023-04-21T13:52:50.328Z,6.75
2023-04-21T13:55:16.901Z,5.40
2023-04-21T13:57:43.198Z,6.32
2023-04-21T14:00:11.082Z,7.47
2023-04-21T14:02:38.066Z,6.25
2023-04-21T14:05:04.889Z,6.40
2023-04-21T14:07:32.041Z,6.82
2023-04-21T14:09:58.462Z,7.07
2023-04-21T14:12:26.285Z,6.15
2023-04-21T14:14:52.715Z,7.38
2023-04-21T14:17:19.097Z,5.30
2023-04-21T14:19:45.691Z,5.28
2023-04-21T14:22:12.109Z,4.40
2023-04-21T14:24:38.549Z,6.07
2023-04-21T14:27:05.784Z,6.03
2023-04-21T14:29:32.476Z,6.07
2023-04-21T14:31:59.496Z,5.60
2023-04-21T14:34:26.259Z,4.88
2023-04-21T14:36:52.768Z,4.57
2023-04-21T14:39:19.315Z,3.28
2023-04-21T14:41:45.782Z,5.38
2023-04-21T14:44:12.209Z,6.55
2023-04-21T14:46:39.072Z,6.22
2023-04-21T14:49:05.858Z,4.93
2023-04-21T14:51:32.713Z,4.05
2023-04-21T14:53:59.081Z,3.10
2023-04-21T14:56:25.865Z,5.13
2023-04-21T14:58:52.186Z,4.88
2023-04-21T15:01:18.675Z,5.55
2023-04-21T15:03:45.423Z,4.07
2023-04-21T15:06:11.904Z,6.25
2023-04-21T15:08:38.384Z,5.20
2023-04-21T15:11:05.293Z,5.93
2023-04-21T15:13:32.655Z,6.30
2023-04-21T15:15:59.152Z,6.30
2023-04-21T15:18:25.467Z,6.28
2023-04-21T15:20:51.955Z,6.53
2023-04-21T15:23:18.412Z,5.70
2023-04-21T15:25:44.816Z,5.75
2023-04-21T15:28:12.858Z,3.90
2023-04-21T15:30:39.279Z,2.83
2023-04-21T15:33:05.721Z,3.38
2023-04-21T15:35:32.064Z,3.40
2023-04-21T15:37:58.452Z,4.15
2023-04-21T15:40:24.813Z,3.83
2023-04-21T15:42:51.268Z,3.40
2023-04-21T15:45:18.238Z,2.38
2023-04-21T15:47:44.746Z,4.40
2023-04-21T15:50:11.308Z,3.67
2023-04-21T15:52:43.307Z,3.53
2023-04-21T15:55:12.836Z,3.10
2023-04-21T15:57:39.343Z,2.20
2023-04-21T16:00:06.348Z,2.55
2023-04-21T16:02:32.869Z,3.55
2023-04-21T16:04:59.850Z,2.80
2023-04-21T16:07:26.785Z,4.03
2023-04-21T16:09:53.481Z,3.10
2023-04-21T16:12:20.014Z,2.00
2023-04-21T16:14:56.084Z,3.75
2023-04-21T16:17:27.594Z,2.47
2023-04-21T16:19:54.313Z,2.17
2023-04-21T16:22:20.764Z,5.00
2023-04-21T16:24:48.039Z,2.90
2023-04-21T16:27:14.538Z,2.65
2023-04-21T16:29:40.888Z,1.40
2023-04-21T16:32:07.381Z,1.92
2023-04-21T16:34:33.935Z,2.78
2023-04-21T16:37:00.581Z,3.50
2023-04-21T16:39:27.647Z,2.95
2023-04-21T16:41:54.100Z,5.00
2023-04-21T16:44:20.696Z,3.17
2023-04-21T16:46:47.280Z,3.85
2023-04-21T16:49:13.820Z,4.20
2023-04-21T16:51:44.474Z,4.35
2023-04-21T16:54:11.648Z,3.38
2023-04-21T16:56:38.665Z,4.63
2023-04-21T16:59:05.309Z,4.95
2023-04-21T17:01:31.824Z,4.28
2023-04-21T17:03:58.737Z,4.07
2023-04-21T17:06:25.215Z,3.90
2023-04-21T17:08:52.984Z,5.55
2023-04-21T17:11:19.371Z,5.10
2023-04-21T17:13:45.898Z,5.82
2023-04-21T17:16:12.366Z,5.28
2023-04-21T17:18:38.846Z,6.15
2023-04-21T17:21:06.205Z,5.28
2023-04-21T17:23:32.656Z,5.10
2023-04-21T17:25:58.994Z,4.97
2023-04-21T17:28:25.777Z,5.30
2023-04-21T17:31:00.317Z,4.38
2023-04-21T17:33:33.964Z,4.55
2023-04-21T17:36:03.316Z,3.70
2023-04-21T17:38:30.275Z,3.97
2023-04-21T17:40:56.869Z,4.40
2023-04-21T17:43:23.442Z,4.40
2023-04-21T17:45:49.924Z,4.47
2023-04-21T17:48:16.354Z,3.88
2023-04-21T17:50:43.027Z,4.72
2023-04-21T17:53:09.481Z,4.63
2023-04-21T17:55:35.822Z,5.07
2023-04-21T17:58:02.272Z,4.85
2023-04-21T18:00:34.291Z,4.45
2023-04-21T18:03:02.095Z,4.85
2023-04-21T18:05:28.815Z,4.72
2023-04-21T18:07:55.859Z,4.45
2023-04-21T18:10:22.368Z,4.57
2023-04-21T18:12:48.716Z,5.47
2023-04-21T18:15:15.052Z,4.93
2023-04-21T18:17:41.527Z,5.80
2023-04-21T18:20:08.632Z,2.50
2023-04-21T18:22:34.966Z,2.55
2023-04-21T18:25:01.347Z,1.70
2023-04-21T18:27:27.744Z,0.90
2023-04-21T18:29:54.043Z,0.63
2023-04-21T18:32:20.916Z,0.30
2023-04-21T18:34:47.456Z,0.30
2023-04-21T18:37:14.614Z,0.20
2023-04-21T18:39:41.211Z,0.20
2023-04-21T18:42:07.628Z,0.10
2023-04-21T18:44:33.944Z,0.10
2023-04-21T18:47:00.385Z,0.10
2023-04-21T18:49:26.996Z,0.10
2023-04-21T18:51:53.415Z,0.10
2023-04-21T18:54:19.851Z,0.10
2023-04-21T18:56:46.657Z,0.03
2023-04-21T18:59:13.174Z,0.10
2023-04-21T19:01:41.333Z,0.08
2023-04-21T19:04:09.382Z,0.10
2023-04-21T19:06:36.271Z,0.10
2023-04-21T19:09:02.624Z,0.00
2023-04-21T19:11:29.622Z,0.10
2023-04-21T19:13:56.166Z,0.10
2023-04-21T19:16:22.515Z,0.10
2023-04-21T19:18:48.945Z,0.05
2023-04-21T19:21:15.340Z,0.10
2023-04-21T19:23:42.834Z,0.10
2023-04-21T19:26:11.844Z,0.10
2023-04-21T19:28:38.689Z,0.10
2023-04-21T19:31:05.099Z,0.00
2023-04-21T19:33:31.595Z,0.10
2023-04-21T19:35:58.575Z,0.10
2023-04-21T19:38:25.734Z,0.00
2023-04-21T19:40:52.206Z,0.10
2023-04-21T19:43:20.242Z,0.10
2023-04-21T19:45:47.460Z,0.10
2023-04-21T19:48:14.117Z,0.10
2023-04-21T19:50:40.598Z,0.10
2023-04-21T19:53:07.003Z,0.10
2023-04-21T19:55:33.542Z,0.10
2023-04-21T19:57:59.888Z,0.10
2023-04-21T20:00:26.345Z,0.10
2023-04-21T20:02:52.929Z,0.10
2023-04-21T20:05:19.736Z,0.10
2023-04-21T20:07:46.818Z,0.10
2023-04-21T20:10:13.771Z,0.10
2023-04-21T20:12:40.260Z,0.10
2023-04-21T20:15:06.942Z,0.10
2023-04-21T20:17:33.397Z,0.10
2023-04-21T20:19:59.803Z,0.10
2023-04-21T20:22:26.159Z,0.10
2023-04-21T20:24:54.168Z,0.10
2023-04-21T20:27:20.673Z,0.10
2023-04-21T20:29:47.540Z,0.10
2023-04-21T20:32:13.932Z,0.10
2023-04-21T20:34:40.631Z,0.10
2023-04-21T20:37:07.783Z,0.10
2023-04-21T20:39:34.170Z,0.10
2023-04-21T20:42:11.959Z,0.10
2023-04-21T20:44:41.214Z,0.10
2023-04-21T20:47:08.475Z,0.10
2023-04-21T20:49:35.225Z,0.10
2023-04-21T20:52:01.948Z,0.10
2023-04-21T20:54:28.862Z,0.10
2023-04-21T20:56:55.348Z,0.10
2023-04-21T20:59:22.288Z,0.10
2023-04-21T21:01:48.779Z,0.10
2023-04-21T21:04:15.334Z,0.10
2023-04-21T21:06:41.901Z,0.10
2023-04-21T21:09:10.020Z,0.10
2023-04-21T21:11:36.307Z,0.10
2023-04-21T21:14:02.749Z,0.10
2023-04-21T21:16:29.952Z,0.10
2023-04-21T21:18:56.298Z,0.10
2023-04-21T21:21:22.632Z,0.10
2023-04-21T21:23:48.983Z,0.10
2023-04-21T21:26:15.365Z,0.10
2023-04-21T21:28:42.183Z,0.10
2023-04-21T21:31:08.550Z,0.10
2023-04-21T21:33:34.980Z,0.10
2023-04-21T21:36:01.318Z,0.10
2023-04-21T21:38:27.668Z,0.10
2023-04-21T21:40:54.042Z,0.10
2023-04-21T21:43:20.578Z,0.10
2023-04-21T21:45:47.450Z,0.10
2023-04-21T21:48:14.062Z,0.10
2023-04-21T21:50:40.655Z,0.10
2023-04-21T21:53:07.159Z,0.10
2023-04-21T21:55:33.754Z,0.10
2023-04-21T21:58:03.542Z,0.10
2023-04-21T22:00:30.505Z,0.10
2023-04-21T22:02:57.109Z,0.10
2023-04-21T22:05:23.474Z,0.10
2023-04-21T22:07:49.866Z,0.00
2023-04-21T22:10:16.174Z,0.10
2023-04-21T22:12:42.611Z,0.10
2023-04-21T22:15:09.395Z,0.10
2023-04-21T22:17:36.096Z,0.10
2023-04-21T22:20:04.710Z,0.10
2023-04-21T22:22:31.125Z,0.10
2023-04-21T22:24:57.450Z,0.10
2023-04-21T22:27:23.879Z,0.10
2023-04-21T22:29:50.957Z,0.10
2023-04-21T22:32:17.358Z,0.10
2023-04-21T22:34:43.707Z,0.10
2023-04-21T22:37:10.206Z,0.10
2023-04-21T22:39:38.258Z,0.10
2023-04-21T22:42:05.173Z,0.10
2023-04-21T22:44:31.534Z,0.10
2023-04-21T22:46:57.960Z,0.10
2023-04-21T22:49:24.356Z,0.10
2023-04-21T22:51:50.716Z,0.10
2023-04-21T22:54:17.010Z,0.10
2023-04-21T22:56:43.367Z,0.10
2023-04-21T22:59:09.934Z,0.10
2023-04-21T23:01:36.215Z,0.10
2023-04-21T23:04:03.185Z,0.10
2023-04-21T23:06:29.855Z,0.10
2023-04-21T23:08:56.181Z,0.10
2023-04-21T23:11:22.547Z,0.10
2023-04-21T23:13:48.913Z,0.10
2023-04-21T23:16:15.610Z,0.10
2023-04-21T23:18:42.122Z,0.00
2023-04-21T23:21:08.458Z,0.10
2023-04-21T23:23:34.820Z,0.10
2023-04-21T23:26:01.202Z,0.10
2023-04-21T23:28:27.612Z,0.10
2023-04-21T23:30:54.117Z,0.10
2023-04-21T23:33:20.551Z,0.10
2023-04-21T23:35:47.171Z,0.10
2023-04-21T23:38:13.504Z,0.10
2023-04-21T23:40:40.606Z,0.10
2023-04-21T23:43:07.443Z,0.10
2023-04-21T23:45:33.752Z,0.10
2023-04-21T23:48:00.187Z,0.10
2023-04-21T23:50:26.601Z,0.10
2023-04-21T23:52:52.959Z,0.10
2023-04-21T23:55:19.369Z,0.10
2023-04-21T23:57:46.851Z,0.10
